Jim Hamilton L.B. Owens Airport Columbia US
ICAO: KCUB
IATA: CUB
Category: Medium
Scheduled Services: No

Elevation: 193 ft
TransAlt. 18000 ft.

Airport Communications:
APP/DEP:133.4
ASOS:119.675
CLNC DEL:124.4
MIL OPS:122.8
ANDERSON RDO:114.7
CTAF/UNICOM:122.8

KCUB Zoom In..

If you have problems with the map follow the link
https://www.worldairports.se/pages/airport.php?
ICAO=KCUB

Runways:

(A) RW 13 length 5011 ft width 75 ft
LOC 110.90 / hdg 131

(B) RW 31 length 5011 ft width 75 ft
LOC 110.90 / hdg 311

Location; KCUB
Day. 23 / Time. 16.53 Zulu
* Altimeter: 30.19
* Temperature: 21° c. 69.8°f.
* Wind from: 000° Speed 00 kn.
Dewpoint: 12° c.
Visibility: 10 Statute Miles.
Clouds: Clear (automated report).

KCUB 231653Z AUTO 00000KT 10SM CLR 21/12 A3019 RMK AO2 SLP223 T02110117


Wind - Calm.

 
 
jpsmedia.com for Web Design worldairports.se 2018   terms of use